Time,TemperatureF,DewpointF,PressureIn,WindDirection,WindDirectionDegrees,WindSpeedMPH,WindSpeedGustMPH,Humidity,HourlyPrecipIn,Conditions,Clouds,dailyrainin,SoftwareType,DateUTC
2013-01-05 00:00:00,20.9,16.8,30.23,SSW,210,0.0,6.0,84,0.00,,CLR,0.00,VWS V14.00,2013-01-05 05:00:00,
2013-01-05 00:02:00,20.9,16.8,30.23,SSW,210,1.0,3.0,84,0.00,,CLR,0.00,VWS V14.00,2013-01-05 05:02:00,
2013-01-05 00:07:00,21.0,16.9,30.24,SW,235,2.0,6.0,84,0.00,,CLR,0.00,VWS V14.00,2013-01-05 05:07:00,
2013-01-05 00:12:00,21.1,17.0,30.24,SW,234,4.0,4.0,84,0.00,,CLR,0.00,VWS V14.00,2013-01-05 05:12:00,
2013-01-05 00:17:00,21.2,17.4,30.24,West,262,4.0,6.0,85,0.00,,CLR,0.00,VWS V14.00,2013-01-05 05:17:00,
2013-01-05 00:22:00,21.2,17.1,30.24,SW,234,2.0,4.0,84,0.00,,CLR,0.00,VWS V14.00,2013-01-05 05:22:00,
2013-01-05 00:27:00,21.2,17.1,30.24,WSW,253,3.0,6.0,84,0.00,,CLR,0.00,VWS V14.00,2013-01-05 05:27:00,
2013-01-05 00:32:00,21.2,17.1,30.24,West,261,3.0,7.0,84,0.00,,CLR,0.00,VWS V14.00,2013-01-05 05:32:00,
2013-01-05 00:37:00,21.2,17.1,30.24,SW,222,4.0,7.0,84,0.00,,CLR,0.00,VWS V14.00,2013-01-05 05:37:00,
2013-01-05 00:42:00,21.1,17.0,30.24,SW,225,3.0,6.0,84,0.00,,CLR,0.00,VWS V14.00,2013-01-05 05:42:00,
2013-01-05 00:47:00,21.1,17.0,30.24,WSW,245,3.0,6.0,84,0.00,,CLR,0.00,VWS V14.00,2013-01-05 05:47:00,
2013-01-05 00:52:00,21.0,17.2,30.24,WSW,244,3.0,5.0,85,0.00,,CLR,0.00,VWS V14.00,2013-01-05 05:52:00,
2013-01-05 00:57:00,20.9,17.1,30.25,WSW,238,1.0,5.0,85,0.00,,CLR,0.00,VWS V14.00,2013-01-05 05:57:00,
2013-01-05 01:02:00,20.7,16.6,30.25,WSW,257,0.0,4.0,84,0.00,,CLR,0.00,VWS V14.00,2013-01-05 06:02:00,
2013-01-05 01:07:00,20.5,16.4,30.24,SW,236,0.0,6.0,84,0.00,,CLR,0.00,VWS V14.00,2013-01-05 06:07:00,
2013-01-05 01:12:00,20.3,16.5,30.25,WSW,238,0.0,3.0,85,0.00,,CLR,0.00,VWS V14.00,2013-01-05 06:12:00,
2013-01-05 01:17:00,20.2,16.4,30.25,WSW,246,0.0,3.0,85,0.00,,CLR,0.00,VWS V14.00,2013-01-05 06:17:00,
2013-01-05 01:22:00,20.2,16.4,30.25,WSW,244,0.0,0.0,85,0.00,,CLR,0.00,VWS V14.00,2013-01-05 06:22:00,
2013-01-05 01:27:00,20.0,16.2,30.25,WSW,244,0.0,3.0,85,0.00,,CLR,0.00,VWS V14.00,2013-01-05 06:27:00,
2013-01-05 01:32:00,19.9,16.1,30.25,SW,220,0.0,4.0,85,0.00,,CLR,0.00,VWS V14.00,2013-01-05 06:32:00,
2013-01-05 01:37:00,19.8,16.0,30.25,SW,221,0.0,4.0,85,0.00,,CLR,0.00,VWS V14.00,2013-01-05 06:37:00,
2013-01-05 01:42:00,19.7,15.9,30.25,WSW,241,0.0,3.0,85,0.00,,CLR,0.00,VWS V14.00,2013-01-05 06:42:00,
2013-01-05 01:47:00,19.7,16.2,30.25,WSW,241,1.0,3.0,86,0.00,,CLR,0.00,VWS V14.00,2013-01-05 06:47:00,
2013-01-05 01:52:00,19.7,16.2,30.25,WSW,241,2.0,4.0,86,0.00,,CLR,0.00,VWS V14.00,2013-01-05 06:52:00,
2013-01-05 01:57:00,19.7,16.2,30.26,West,272,0.0,5.0,86,0.00,,CLR,0.00,VWS V14.00,2013-01-05 06:57:00,
2013-01-05 02:02:00,19.7,16.2,30.26,WSW,246,5.0,5.0,86,0.00,,CLR,0.00,VWS V14.00,2013-01-05 07:02:00,
2013-01-05 02:07:00,19.7,16.2,30.26,WSW,242,3.0,5.0,86,0.00,,CLR,0.00,VWS V14.00,2013-01-05 07:07:00,
2013-01-05 02:12:00,19.7,16.2,30.26,SW,232,0.0,5.0,86,0.00,,CLR,0.00,VWS V14.00,2013-01-05 07:12:00,
2013-01-05 02:17:00,19.7,16.2,30.27,WSW,249,3.0,5.0,86,0.00,,CLR,0.00,VWS V14.00,2013-01-05 07:17:00,
2013-01-05 02:22:00,19.7,16.2,30.27,WSW,237,1.0,6.0,86,0.00,,CLR,0.00,VWS V14.00,2013-01-05 07:22:00,
2013-01-05 02:27:00,19.7,16.2,30.27,SW,235,0.0,6.0,86,0.00,,CLR,0.00,VWS V14.00,2013-01-05 07:27:00,
2013-01-05 02:32:00,19.7,16.2,30.27,SW,233,2.0,3.0,86,0.00,,CLR,0.00,VWS V14.00,2013-01-05 07:32:00,
2013-01-05 02:37:00,19.6,16.1,30.28,SW,230,0.0,4.0,86,0.00,,CLR,0.00,VWS V14.00,2013-01-05 07:37:00,
2013-01-05 02:42:00,19.4,15.9,30.28,SW,233,3.0,3.0,86,0.00,,CLR,0.00,VWS V14.00,2013-01-05 07:42:00,
2013-01-05 02:47:00,19.5,16.0,30.28,SW,236,2.0,7.0,86,0.00,,CLR,0.00,VWS V14.00,2013-01-05 07:47:00,
2013-01-05 02:52:00,19.6,16.1,30.28,SW,222,0.0,3.0,86,0.00,,CLR,0.00,VWS V14.00,2013-01-05 07:52:00,
2013-01-05 02:57:00,19.5,16.0,30.28,SW,225,2.0,4.0,86,0.00,,CLR,0.00,VWS V14.00,2013-01-05 07:57:00,
2013-01-05 03:02:00,19.7,16.2,30.28,WSW,248,2.0,5.0,86,0.00,,CLR,0.00,VWS V14.00,2013-01-05 08:02:00,
2013-01-05 03:07:00,19.7,16.2,30.28,WSW,247,3.0,5.0,86,0.00,,CLR,0.00,VWS V14.00,2013-01-05 08:07:00,
2013-01-05 03:12:00,19.7,16.2,30.28,SW,227,0.0,5.0,86,0.00,,CLR,0.00,VWS V14.00,2013-01-05 08:12:00,
2013-01-05 03:17:00,19.7,16.2,30.28,WSW,237,0.0,5.0,86,0.00,,CLR,0.00,VWS V14.00,2013-01-05 08:17:00,
2013-01-05 03:22:00,19.6,16.1,30.27,WSW,237,3.0,3.0,86,0.00,,CLR,0.00,VWS V14.00,2013-01-05 08:22:00,
2013-01-05 03:27:00,19.5,16.0,30.27,WSW,237,2.0,3.0,86,0.00,,CLR,0.00,VWS V14.00,2013-01-05 08:27:00,
2013-01-05 03:32:00,19.4,16.2,30.27,WSW,237,0.0,3.0,87,0.00,,CLR,0.00,VWS V14.00,2013-01-05 08:32:00,
2013-01-05 03:37:00,19.3,15.8,30.28,WSW,237,1.0,3.0,86,0.00,,CLR,0.00,VWS V14.00,2013-01-05 08:37:00,
2013-01-05 03:42:00,19.1,15.6,30.27,WSW,237,0.0,3.0,86,0.00,,CLR,0.00,VWS V14.00,2013-01-05 08:42:00,
2013-01-05 03:47:00,19.0,15.8,30.28,WSW,237,2.0,4.0,87,0.00,,CLR,0.00,VWS V14.00,2013-01-05 08:47:00,
2013-01-05 03:52:00,18.9,15.7,30.27,WSW,237,0.0,3.0,87,0.00,,CLR,0.00,VWS V14.00,2013-01-05 08:52:00,
2013-01-05 03:57:00,19.0,15.8,30.28,SW,233,2.0,5.0,87,0.00,,CLR,0.00,VWS V14.00,2013-01-05 08:57:00,
2013-01-05 04:02:00,19.0,15.8,30.28,SW,233,0.0,2.0,87,0.00,,CLR,0.00,VWS V14.00,2013-01-05 09:02:00,
2013-01-05 04:07:00,19.0,15.8,30.28,SW,234,0.0,2.0,87,0.00,,CLR,0.00,VWS V14.00,2013-01-05 09:07:00,
2013-01-05 04:12:00,18.9,15.7,30.28,SW,215,0.0,3.0,87,0.00,,CLR,0.00,VWS V14.00,2013-01-05 09:12:00,
2013-01-05 04:17:00,18.8,15.6,30.27,SW,219,0.0,4.0,87,0.00,,CLR,0.00,VWS V14.00,2013-01-05 09:17:00,
2013-01-05 04:22:00,18.7,15.5,30.28,SW,218,0.0,3.0,87,0.00,,CLR,0.00,VWS V14.00,2013-01-05 09:22:00,
2013-01-05 04:27:00,18.8,15.6,30.28,SW,222,2.0,5.0,87,0.00,,CLR,0.00,VWS V14.00,2013-01-05 09:27:00,
2013-01-05 04:32:00,18.9,15.7,30.28,SW,223,3.0,3.0,87,0.00,,CLR,0.00,VWS V14.00,2013-01-05 09:32:00,
2013-01-05 04:37:00,19.0,15.8,30.28,SW,232,0.0,5.0,87,0.00,,CLR,0.00,VWS V14.00,2013-01-05 09:37:00,
2013-01-05 04:42:00,19.1,15.9,30.28,SW,232,3.0,4.0,87,0.00,,CLR,0.00,VWS V14.00,2013-01-05 09:42:00,
2013-01-05 04:47:00,19.1,15.9,30.29,SW,232,0.0,5.0,87,0.00,,CLR,0.00,VWS V14.00,2013-01-05 09:47:00,
2013-01-05 04:52:00,19.3,16.1,30.29,SW,229,2.0,5.0,87,0.00,,CLR,0.00,VWS V14.00,2013-01-05 09:52:00,
2013-01-05 04:57:00,19.3,16.1,30.29,SW,229,4.0,5.0,87,0.00,,CLR,0.00,VWS V14.00,2013-01-05 09:57:00,
2013-01-05 05:02:00,19.4,16.2,30.30,SW,231,1.0,4.0,87,0.00,,CLR,0.00,VWS V14.00,2013-01-05 10:02:00,
2013-01-05 05:07:00,19.3,16.1,30.30,SW,233,5.0,6.0,87,0.00,,CLR,0.00,VWS V14.00,2013-01-05 10:07:00,
2013-01-05 05:12:00,19.3,16.1,30.30,SW,219,2.0,5.0,87,0.00,,CLR,0.00,VWS V14.00,2013-01-05 10:12:00,
2013-01-05 05:17:00,19.4,16.2,30.30,SW,229,0.0,6.0,87,0.00,,CLR,0.00,VWS V14.00,2013-01-05 10:17:00,
2013-01-05 05:22:00,19.4,16.2,30.30,SW,229,3.0,5.0,87,0.00,,CLR,0.00,VWS V14.00,2013-01-05 10:22:00,
2013-01-05 05:27:00,19.5,16.3,30.30,WSW,238,3.0,5.0,87,0.00,,CLR,0.00,VWS V14.00,2013-01-05 10:27:00,
2013-01-05 05:32:00,19.5,16.3,30.30,SW,232,0.0,2.0,87,0.00,,CLR,0.00,VWS V14.00,2013-01-05 10:32:00,
2013-01-05 05:37:00,19.4,16.2,30.29,SW,228,2.0,3.0,87,0.00,,CLR,0.00,VWS V14.00,2013-01-05 10:37:00,
2013-01-05 05:42:00,19.3,16.1,30.29,SW,228,2.0,3.0,87,0.00,,CLR,0.00,VWS V14.00,2013-01-05 10:42:00,
2013-01-05 05:47:00,19.2,16.0,30.30,SW,228,0.0,3.0,87,0.00,,CLR,0.00,VWS V14.00,2013-01-05 10:47:00,
2013-01-05 05:52:00,19.2,16.0,30.29,SW,234,1.0,4.0,87,0.00,,CLR,0.00,VWS V14.00,2013-01-05 10:52:00,
2013-01-05 05:57:00,19.2,16.0,30.30,SW,233,4.0,4.0,87,0.00,,CLR,0.00,VWS V14.00,2013-01-05 10:57:00,
2013-01-05 06:02:00,19.2,16.0,30.29,SW,233,3.0,3.0,87,0.00,,,0.00,VWS V14.00,2013-01-05 11:02:00,
2013-01-05 06:07:00,19.2,16.0,30.30,SW,230,0.0,3.0,87,0.00,,,0.00,VWS V14.00,2013-01-05 11:07:00,
2013-01-05 06:12:00,19.1,15.9,30.30,SW,230,0.0,2.0,87,0.00,,,0.00,VWS V14.00,2013-01-05 11:12:00,
2013-01-05 06:17:00,19.0,15.8,30.30,SW,230,1.0,2.0,87,0.00,,,0.00,VWS V14.00,2013-01-05 11:17:00,
2013-01-05 06:22:00,19.1,15.9,30.30,SW,227,0.0,1.0,87,0.00,,,0.00,VWS V14.00,2013-01-05 11:22:00,
2013-01-05 06:27:00,19.1,15.9,30.30,SW,226,2.0,3.0,87,0.00,,,0.00,VWS V14.00,2013-01-05 11:27:00,
2013-01-05 06:32:00,19.2,16.0,30.31,SW,223,0.0,3.0,87,0.00,,,0.00,VWS V14.00,2013-01-05 11:32:00,
2013-01-05 06:37:00,19.4,16.2,30.31,SW,223,2.0,3.0,87,0.00,,,0.00,VWS V14.00,2013-01-05 11:37:00,
2013-01-05 06:42:00,19.7,16.7,30.31,SW,223,2.0,3.0,88,0.00,,,0.00,VWS V14.00,2013-01-05 11:42:00,
2013-01-05 06:47:00,19.7,16.7,30.31,SW,229,5.0,6.0,88,0.00,,,0.00,VWS V14.00,2013-01-05 11:47:00,
2013-01-05 06:52:00,20.2,17.2,30.31,SW,232,5.0,6.0,88,0.00,,,0.00,VWS V14.00,2013-01-05 11:52:00,
2013-01-05 06:57:00,20.4,17.4,30.31,WSW,242,4.0,6.0,88,0.00,,,0.00,VWS V14.00,2013-01-05 11:57:00,
2013-01-05 07:02:00,20.6,17.4,30.32,SSW,202,4.0,6.0,87,0.00,,,0.00,VWS V14.00,2013-01-05 12:02:00,
2013-01-05 07:07:00,20.7,17.5,30.32,SW,225,2.0,7.0,87,0.00,,,0.00,VWS V14.00,2013-01-05 12:07:00,
2013-01-05 07:12:00,20.7,17.5,30.32,SW,223,3.0,5.0,87,0.00,,,0.00,VWS V14.00,2013-01-05 12:12:00,
2013-01-05 07:17:00,20.7,17.5,30.32,SW,228,0.0,5.0,87,0.00,,,0.00,VWS V14.00,2013-01-05 12:17:00,
2013-01-05 07:22:00,20.7,17.5,30.32,SW,229,0.0,4.0,87,0.00,,,0.00,VWS V14.00,2013-01-05 12:22:00,
2013-01-05 07:27:00,20.8,17.5,30.31,SW,214,0.0,4.0,87,0.00,,,0.00,VWS V14.00,2013-01-05 12:27:00,
2013-01-05 07:32:00,20.9,17.4,30.31,SW,234,0.0,3.0,86,0.00,,,0.00,VWS V14.00,2013-01-05 12:32:00,
2013-01-05 07:37:00,20.9,17.4,30.31,SW,222,0.0,4.0,86,0.00,,,0.00,VWS V14.00,2013-01-05 12:37:00,
2013-01-05 07:42:00,20.8,17.3,30.31,SSW,205,2.0,2.0,86,0.00,,,0.00,VWS V14.00,2013-01-05 12:42:00,
2013-01-05 07:47:00,20.7,17.2,30.30,SSW,195,0.0,3.0,86,0.00,,,0.00,VWS V14.00,2013-01-05 12:47:00,
2013-01-05 07:52:00,20.6,17.1,30.31,SSW,196,0.0,2.0,86,0.00,,,0.00,VWS V14.00,2013-01-05 12:52:00,
2013-01-05 07:57:00,20.4,16.9,30.31,SSW,196,0.0,3.0,86,0.00,,,0.00,VWS V14.00,2013-01-05 12:57:00,
2013-01-05 08:02:00,20.3,16.8,30.31,SSW,196,1.0,2.0,86,0.00,,,0.00,VWS V14.00,2013-01-05 13:02:00,
2013-01-05 08:07:00,20.2,16.7,30.30,SW,217,2.0,4.0,86,0.00,,,0.00,VWS V14.00,2013-01-05 13:07:00,
2013-01-05 08:12:00,20.1,16.6,30.31,SW,217,0.0,1.0,86,0.00,,,0.00,VWS V14.00,2013-01-05 13:12:00,
2013-01-05 08:17:00,19.9,16.4,30.30,SW,217,0.0,1.0,86,0.00,,,0.00,VWS V14.00,2013-01-05 13:17:00,
2013-01-05 08:22:00,19.8,16.3,30.30,SW,217,0.0,0.0,86,0.00,,,0.00,VWS V14.00,2013-01-05 13:22:00,
2013-01-05 08:27:00,19.7,16.2,30.31,SW,217,0.0,2.0,86,0.00,,,0.00,VWS V14.00,2013-01-05 13:27:00,
2013-01-05 08:32:00,19.8,16.6,30.31,SW,217,0.0,2.0,87,0.00,,,0.00,VWS V14.00,2013-01-05 13:32:00,
2013-01-05 08:37:00,20.0,16.8,30.31,SSW,207,0.0,3.0,87,0.00,,,0.00,VWS V14.00,2013-01-05 13:37:00,
2013-01-05 08:42:00,20.2,17.0,30.31,SSW,203,0.0,0.0,87,0.00,,,0.00,VWS V14.00,2013-01-05 13:42:00,
2013-01-05 08:47:00,20.4,17.2,30.31,SSW,203,0.0,2.0,87,0.00,,,0.00,VWS V14.00,2013-01-05 13:47:00,
2013-01-05 08:52:00,20.6,17.4,30.31,SSW,197,0.0,4.0,87,0.00,,,0.00,VWS V14.00,2013-01-05 13:52:00,
2013-01-05 08:57:00,20.9,17.6,30.31,SSW,196,0.0,4.0,87,0.00,,,0.00,VWS V14.00,2013-01-05 13:57:00,
2013-01-05 09:02:00,21.2,17.9,30.32,SSW,197,0.0,1.0,87,0.00,,,0.00,VWS V14.00,2013-01-05 14:02:00,
2013-01-05 09:07:00,21.5,18.2,30.32,SW,217,4.0,4.0,87,0.00,,,0.00,VWS V14.00,2013-01-05 14:07:00,
2013-01-05 09:12:00,21.7,18.4,30.32,SW,221,0.0,4.0,87,0.00,,,0.00,VWS V14.00,2013-01-05 14:12:00,
2013-01-05 09:17:00,21.8,18.3,30.32,SW,216,2.0,4.0,86,0.00,,,0.00,VWS V14.00,2013-01-05 14:17:00,
2013-01-05 09:22:00,22.0,18.5,30.32,SSW,197,2.0,4.0,86,0.00,,,0.00,VWS V14.00,2013-01-05 14:22:00,
2013-01-05 09:27:00,22.2,18.7,30.32,SSW,206,0.0,4.0,86,0.00,,,0.00,VWS V14.00,2013-01-05 14:27:00,
2013-01-05 09:32:00,22.4,18.6,30.32,SSW,210,2.0,6.0,85,0.00,,,0.00,VWS V14.00,2013-01-05 14:32:00,
2013-01-05 09:37:00,22.5,18.7,30.32,South,188,0.0,6.0,85,0.00,,,0.00,VWS V14.00,2013-01-05 14:37:00,
2013-01-05 09:42:00,22.7,18.9,30.32,SW,217,2.0,4.0,85,0.00,,,0.00,VWS V14.00,2013-01-05 14:42:00,
2013-01-05 09:47:00,22.8,19.0,30.32,SW,223,0.0,5.0,85,0.00,,,0.00,VWS V14.00,2013-01-05 14:47:00,
2013-01-05 09:52:00,23.0,18.9,30.31,SW,216,0.0,3.0,84,0.00,,,0.00,VWS V14.00,2013-01-05 14:52:00,
2013-01-05 09:57:00,23.4,19.3,30.31,SSW,199,0.0,5.0,84,0.00,,,0.00,VWS V14.00,2013-01-05 14:57:00,
2013-01-05 10:02:00,23.7,19.3,30.31,SW,218,0.0,2.0,83,0.00,,,0.00,VWS V14.00,2013-01-05 15:02:00,
2013-01-05 10:07:00,23.8,19.4,30.32,South,186,0.0,5.0,83,0.00,,,0.00,VWS V14.00,2013-01-05 15:07:00,
2013-01-05 10:12:00,24.0,19.3,30.31,SSW,200,0.0,1.0,82,0.00,,,0.00,VWS V14.00,2013-01-05 15:12:00,
2013-01-05 10:17:00,24.3,19.6,30.31,South,188,1.0,4.0,82,0.00,,,0.00,VWS V14.00,2013-01-05 15:17:00,
2013-01-05 10:22:00,24.5,19.5,30.31,SW,219,0.0,2.0,81,0.00,,,0.00,VWS V14.00,2013-01-05 15:22:00,
2013-01-05 10:27:00,24.7,19.7,30.31,South,188,2.0,9.0,81,0.00,,,0.00,VWS V14.00,2013-01-05 15:27:00,
2013-01-05 10:32:00,25.0,20.0,30.30,South,180,2.0,4.0,81,0.00,,,0.00,VWS V14.00,2013-01-05 15:32:00,
2013-01-05 10:37:00,25.3,20.0,30.30,SSW,209,2.0,5.0,80,0.00,,,0.00,VWS V14.00,2013-01-05 15:37:00,
2013-01-05 10:42:00,25.6,20.3,30.30,SSW,202,3.0,6.0,80,0.00,,,0.00,VWS V14.00,2013-01-05 15:42:00,
2013-01-05 10:47:00,25.9,20.3,30.30,SSW,205,2.0,6.0,79,0.00,,,0.00,VWS V14.00,2013-01-05 15:47:00,
2013-01-05 10:52:00,26.2,20.6,30.30,SW,234,3.0,4.0,79,0.00,,,0.00,VWS V14.00,2013-01-05 15:52:00,
2013-01-05 10:57:00,26.3,20.4,30.31,SW,217,2.0,7.0,78,0.00,,,0.00,VWS V14.00,2013-01-05 15:57:00,
2013-01-05 11:02:00,26.7,20.8,30.31,SSW,198,0.0,5.0,78,0.00,,CLR,0.00,VWS V14.00,2013-01-05 16:02:00,
2013-01-05 11:07:00,27.0,20.8,30.31,SSW,213,0.0,5.0,77,0.00,,CLR,0.00,VWS V14.00,2013-01-05 16:07:00,
2013-01-05 11:12:00,27.4,21.1,30.30,SSW,211,0.0,0.0,77,0.00,,CLR,0.00,VWS V14.00,2013-01-05 16:12:00,
2013-01-05 11:17:00,27.6,21.0,30.30,SW,236,1.0,6.0,76,0.00,,CLR,0.00,VWS V14.00,2013-01-05 16:17:00,
2013-01-05 11:22:00,27.6,21.0,30.29,West,259,1.0,4.0,76,0.00,,CLR,0.00,VWS V14.00,2013-01-05 16:22:00,
2013-01-05 11:26:00,27.9,21.3,30.29,SSW,211,0.0,4.0,76,0.00,,CLR,0.00,VWS V14.00,2013-01-05 16:26:00,
2013-01-05 11:31:00,28.1,21.2,30.28,SSW,207,0.0,4.0,75,0.00,,CLR,0.00,VWS V14.00,2013-01-05 16:31:00,
2013-01-05 11:36:00,28.2,21.3,30.28,WSW,247,1.0,4.0,75,0.00,,CLR,0.00,VWS V14.00,2013-01-05 16:36:00,
2013-01-05 11:41:00,28.4,21.5,30.28,SSW,197,1.0,4.0,75,0.00,,CLR,0.00,VWS V14.00,2013-01-05 16:41:00,
2013-01-05 11:46:00,28.7,21.5,30.28,SW,222,3.0,5.0,74,0.00,,CLR,0.00,VWS V14.00,2013-01-05 16:46:00,
2013-01-05 11:51:00,28.8,21.6,30.27,SW,226,0.0,4.0,74,0.00,,CLR,0.00,VWS V14.00,2013-01-05 16:51:00,
2013-01-05 11:56:00,29.1,21.9,30.27,South,173,0.0,4.0,74,0.00,,CLR,0.00,VWS V14.00,2013-01-05 16:56:00,
2013-01-05 12:01:00,29.5,21.9,30.27,SW,215,4.0,5.0,73,0.00,,CLR,0.00,VWS V14.00,2013-01-05 17:01:00,
2013-01-05 12:06:00,29.8,21.9,30.27,SSW,205,0.0,5.0,72,0.00,,CLR,0.00,VWS V14.00,2013-01-05 17:06:00,
2013-01-05 12:11:00,30.0,21.8,30.27,SW,221,4.0,10.0,71,0.00,,CLR,0.00,VWS V14.00,2013-01-05 17:11:00,
2013-01-05 12:16:00,30.3,22.4,30.26,SW,223,0.0,10.0,72,0.00,,CLR,0.00,VWS V14.00,2013-01-05 17:16:00,
2013-01-05 12:21:00,30.7,22.8,30.25,SW,224,1.0,2.0,72,0.00,,CLR,0.00,VWS V14.00,2013-01-05 17:21:00,
2013-01-05 12:26:00,30.8,22.5,30.25,SSW,213,0.0,4.0,71,0.00,,CLR,0.00,VWS V14.00,2013-01-05 17:26:00,
2013-01-05 12:31:00,31.0,22.7,30.24,SW,229,2.0,4.0,71,0.00,,CLR,0.00,VWS V14.00,2013-01-05 17:31:00,
2013-01-05 12:36:00,31.2,22.6,30.24,WSW,238,3.0,5.0,70,0.00,,CLR,0.00,VWS V14.00,2013-01-05 17:36:00,
2013-01-05 12:41:00,31.5,22.9,30.23,SSW,209,2.0,5.0,70,0.00,,CLR,0.00,VWS V14.00,2013-01-05 17:41:00,
2013-01-05 12:46:00,31.7,23.0,30.23,WSW,238,0.0,5.0,70,0.00,,CLR,0.00,VWS V14.00,2013-01-05 17:46:00,
2013-01-05 12:51:00,31.9,22.9,30.23,SW,219,3.0,4.0,69,0.00,,CLR,0.00,VWS V14.00,2013-01-05 17:51:00,
2013-01-05 12:56:00,31.9,22.9,30.22,WSW,237,0.0,6.0,69,0.00,,CLR,0.00,VWS V14.00,2013-01-05 17:56:00,
2013-01-05 13:01:00,31.8,22.8,30.22,SW,230,0.0,4.0,69,0.00,,CLR,0.00,VWS V14.00,2013-01-05 18:01:00,
2013-01-05 13:06:00,31.9,22.9,30.22,SSW,193,0.0,5.0,69,0.00,,CLR,0.00,VWS V14.00,2013-01-05 18:06:00,
2013-01-05 13:11:00,32.2,23.2,30.21,South,182,9.0,9.0,69,0.00,,CLR,0.00,VWS V14.00,2013-01-05 18:11:00,
2013-01-05 13:16:00,32.5,23.1,30.22,SW,217,2.0,9.0,68,0.00,,CLR,0.00,VWS V14.00,2013-01-05 18:16:00,
2013-01-05 13:21:00,32.5,23.1,30.22,SSW,206,2.0,6.0,68,0.00,,CLR,0.00,VWS V14.00,2013-01-05 18:21:00,
2013-01-05 13:26:00,32.6,23.2,30.21,SSE,164,4.0,6.0,68,0.00,,CLR,0.00,VWS V14.00,2013-01-05 18:26:00,
2013-01-05 13:31:00,33.2,23.8,30.22,SSW,193,3.0,4.0,68,0.00,,CLR,0.00,VWS V14.00,2013-01-05 18:31:00,
2013-01-05 13:36:00,33.5,23.7,30.22,WSW,245,2.0,7.0,67,0.00,,CLR,0.00,VWS V14.00,2013-01-05 18:36:00,
2013-01-05 13:41:00,33.7,23.9,30.22,SW,230,5.0,9.0,67,0.00,,CLR,0.00,VWS V14.00,2013-01-05 18:41:00,
2013-01-05 13:46:00,33.4,23.6,30.21,SSW,205,2.0,9.0,67,0.00,,CLR,0.00,VWS V14.00,2013-01-05 18:46:00,
2013-01-05 13:51:00,33.2,23.8,30.21,WSW,240,0.0,6.0,68,0.00,,CLR,0.00,VWS V14.00,2013-01-05 18:51:00,
2013-01-05 13:56:00,33.3,23.9,30.21,WSW,244,2.0,6.0,68,0.00,,CLR,0.00,VWS V14.00,2013-01-05 18:56:00,
2013-01-05 14:01:00,33.4,24.0,30.20,WSW,238,5.0,5.0,68,0.00,,CLR,0.00,VWS V14.00,2013-01-05 19:01:00,
2013-01-05 14:06:00,33.7,23.9,30.20,West,271,3.0,8.0,67,0.01,,CLR,0.01,VWS V14.00,2013-01-05 19:06:00,
2013-01-05 14:11:00,33.6,23.8,30.19,SW,236,1.0,5.0,67,0.01,,CLR,0.01,VWS V14.00,2013-01-05 19:11:00,
2013-01-05 14:16:00,33.3,23.5,30.19,WSW,238,3.0,5.0,67,0.01,,CLR,0.01,VWS V14.00,2013-01-05 19:16:00,
2013-01-05 14:21:00,32.7,23.3,30.18,WSW,238,0.0,3.0,68,0.01,,CLR,0.01,VWS V14.00,2013-01-05 19:21:00,
2013-01-05 14:26:00,32.6,23.6,30.18,WSW,238,4.0,4.0,69,0.01,,CLR,0.01,VWS V14.00,2013-01-05 19:26:00,
2013-01-05 14:31:00,32.5,23.8,30.18,SSW,205,0.0,6.0,70,0.01,,CLR,0.01,VWS V14.00,2013-01-05 19:31:00,
2013-01-05 14:36:00,32.6,23.9,30.18,SSW,212,4.0,6.0,70,0.01,,CLR,0.01,VWS V14.00,2013-01-05 19:36:00,
2013-01-05 14:41:00,32.8,24.1,30.18,SSW,211,1.0,5.0,70,0.01,,CLR,0.01,VWS V14.00,2013-01-05 19:41:00,
2013-01-05 14:46:00,33.0,24.3,30.17,SSW,200,2.0,5.0,70,0.01,,CLR,0.01,VWS V14.00,2013-01-05 19:46:00,
2013-01-05 14:51:00,33.2,24.5,30.17,SSW,209,5.0,6.0,70,0.01,,CLR,0.01,VWS V14.00,2013-01-05 19:51:00,
2013-01-05 14:56:00,33.2,24.5,30.17,South,182,0.0,6.0,70,0.01,,CLR,0.01,VWS V14.00,2013-01-05 19:56:00,
2013-01-05 15:01:00,33.0,24.3,30.17,SSE,157,0.0,6.0,70,0.02,,CLR,0.02,VWS V14.00,2013-01-05 20:01:00,
2013-01-05 15:06:00,32.8,24.1,30.17,SE,142,1.0,6.0,70,0.02,,CLR,0.02,VWS V14.00,2013-01-05 20:06:00,
2013-01-05 15:11:00,32.8,24.5,30.16,SW,223,2.0,6.0,71,0.01,,CLR,0.02,VWS V14.00,2013-01-05 20:11:00,
2013-01-05 15:16:00,32.8,24.5,30.16,SSW,192,0.0,6.0,71,0.01,,CLR,0.02,VWS V14.00,2013-01-05 20:16:00,
2013-01-05 15:21:00,32.6,24.2,30.16,South,185,5.0,6.0,71,0.01,,CLR,0.02,VWS V14.00,2013-01-05 20:21:00,
2013-01-05 15:26:00,32.6,24.2,30.16,SW,215,4.0,6.0,71,0.01,,CLR,0.02,VWS V14.00,2013-01-05 20:26:00,
2013-01-05 15:31:00,32.5,24.2,30.16,SSE,167,0.0,6.0,71,0.01,,CLR,0.02,VWS V14.00,2013-01-05 20:31:00,
2013-01-05 15:36:00,32.5,24.2,30.16,South,187,4.0,6.0,71,0.01,,CLR,0.02,VWS V14.00,2013-01-05 20:36:00,
2013-01-05 15:41:00,32.2,23.9,30.16,South,190,0.0,6.0,71,0.01,,CLR,0.02,VWS V14.00,2013-01-05 20:41:00,
2013-01-05 15:46:00,32.0,24.0,30.17,SSW,207,0.0,6.0,72,0.01,,CLR,0.02,VWS V14.00,2013-01-05 20:46:00,
2013-01-05 15:51:00,31.9,24.2,30.16,South,191,0.0,3.0,73,0.01,,CLR,0.02,VWS V14.00,2013-01-05 20:51:00,
2013-01-05 15:56:00,31.8,23.8,30.16,SSE,167,0.0,7.0,72,0.01,,CLR,0.02,VWS V14.00,2013-01-05 20:56:00,
2013-01-05 16:01:00,31.9,24.2,30.16,South,180,0.0,0.0,73,0.01,,CLR,0.02,VWS V14.00,2013-01-05 21:01:00,
2013-01-05 16:06:00,32.0,24.3,30.16,South,184,0.0,2.0,73,0.01,,CLR,0.02,VWS V14.00,2013-01-05 21:06:00,
2013-01-05 16:11:00,32.1,24.1,30.16,SSW,209,5.0,9.0,72,0.00,,CLR,0.02,VWS V14.00,2013-01-05 21:11:00,
2013-01-05 16:16:00,32.3,24.0,30.16,SW,215,0.0,9.0,71,0.00,,CLR,0.02,VWS V14.00,2013-01-05 21:16:00,
2013-01-05 16:21:00,32.2,23.9,30.17,SW,217,2.0,5.0,71,0.00,,CLR,0.02,VWS V14.00,2013-01-05 21:21:00,
2013-01-05 16:26:00,32.1,23.8,30.16,SW,217,3.0,6.0,71,0.00,,CLR,0.02,VWS V14.00,2013-01-05 21:26:00,
2013-01-05 16:31:00,32.0,24.0,30.16,SW,216,0.0,3.0,72,0.00,,CLR,0.02,VWS V14.00,2013-01-05 21:31:00,
2013-01-05 16:36:00,31.9,23.9,30.16,SSW,211,3.0,10.0,72,0.00,,CLR,0.02,VWS V14.00,2013-01-05 21:36:00,
2013-01-05 16:41:00,31.7,23.7,30.15,South,191,0.0,3.0,72,0.00,,CLR,0.02,VWS V14.00,2013-01-05 21:41:00,
2013-01-05 16:46:00,31.6,24.0,30.15,SSW,195,4.0,6.0,73,0.00,,CLR,0.02,VWS V14.00,2013-01-05 21:46:00,
2013-01-05 16:51:00,31.6,24.0,30.15,South,175,4.0,5.0,73,0.00,,CLR,0.02,VWS V14.00,2013-01-05 21:51:00,
2013-01-05 16:56:00,31.6,24.3,30.15,SSW,208,0.0,9.0,74,0.00,,CLR,0.02,VWS V14.00,2013-01-05 21:56:00,
2013-01-05 17:01:00,31.6,24.3,30.15,South,186,0.0,5.0,74,0.00,,BKN110,0.02,VWS V14.00,2013-01-05 22:01:00,
2013-01-05 17:06:00,31.5,24.2,30.14,SSW,212,2.0,6.0,74,0.00,,BKN110,0.02,VWS V14.00,2013-01-05 22:06:00,
2013-01-05 17:11:00,31.5,24.5,30.13,South,188,2.0,3.0,75,0.00,,BKN110,0.02,VWS V14.00,2013-01-05 22:11:00,
2013-01-05 17:16:00,31.5,24.5,30.13,SW,219,0.0,3.0,75,0.00,,BKN110,0.02,VWS V14.00,2013-01-05 22:16:00,
2013-01-05 17:21:00,31.4,24.4,30.12,SW,221,2.0,2.0,75,0.00,,BKN110,0.02,VWS V14.00,2013-01-05 22:21:00,
2013-01-05 17:26:00,31.4,24.4,30.12,SSW,195,0.0,6.0,75,0.00,,BKN110,0.02,VWS V14.00,2013-01-05 22:26:00,
2013-01-05 17:31:00,31.5,24.5,30.13,SSW,209,2.0,4.0,75,0.00,,BKN110,0.02,VWS V14.00,2013-01-05 22:31:00,
2013-01-05 17:36:00,31.5,24.5,30.12,SW,217,2.0,5.0,75,0.00,,BKN110,0.02,VWS V14.00,2013-01-05 22:36:00,
2013-01-05 17:41:00,31.6,24.6,30.13,SSW,200,0.0,4.0,75,0.00,,BKN110,0.02,VWS V14.00,2013-01-05 22:41:00,
2013-01-05 17:46:00,31.6,24.6,30.13,SSW,210,0.0,5.0,75,0.00,,BKN110,0.02,VWS V14.00,2013-01-05 22:46:00,
2013-01-05 17:51:00,31.7,25.0,30.13,SSW,203,0.0,6.0,76,0.00,,BKN110,0.02,VWS V14.00,2013-01-05 22:51:00,
2013-01-05 17:56:00,31.7,25.0,30.13,SW,221,4.0,8.0,76,0.00,,BKN110,0.02,VWS V14.00,2013-01-05 22:56:00,
2013-01-05 18:01:00,31.9,25.2,30.13,West,267,2.0,6.0,76,0.00,,OVC110,0.02,VWS V14.00,2013-01-05 23:01:00,
2013-01-05 18:06:00,32.1,25.4,30.13,SW,221,5.0,11.0,76,0.00,,OVC110,0.02,VWS V14.00,2013-01-05 23:06:00,
2013-01-05 18:11:00,32.3,25.3,30.14,SW,223,3.0,6.0,75,0.00,,OVC110,0.02,VWS V14.00,2013-01-05 23:11:00,
2013-01-05 18:16:00,32.4,25.4,30.14,SW,225,4.0,8.0,75,0.00,,OVC110,0.02,VWS V14.00,2013-01-05 23:16:00,
2013-01-05 18:21:00,32.5,25.5,30.15,SSW,209,0.0,6.0,75,0.00,,OVC110,0.02,VWS V14.00,2013-01-05 23:21:00,
2013-01-05 18:26:00,32.5,25.5,30.14,SW,218,4.0,7.0,75,0.00,,OVC110,0.02,VWS V14.00,2013-01-05 23:26:00,
2013-01-05 18:31:00,32.5,25.5,30.14,SSW,196,3.0,9.0,75,0.00,,OVC110,0.02,VWS V14.00,2013-01-05 23:31:00,
2013-01-05 18:36:00,32.5,25.8,30.14,SSW,209,3.0,9.0,76,0.00,,OVC110,0.02,VWS V14.00,2013-01-05 23:36:00,
2013-01-05 18:41:00,32.4,25.7,30.14,WSW,253,2.0,6.0,76,0.00,,OVC110,0.02,VWS V14.00,2013-01-05 23:41:00,
2013-01-05 18:46:00,32.4,25.7,30.14,SSW,199,2.0,10.0,76,0.00,,OVC110,0.02,VWS V14.00,2013-01-05 23:46:00,
2013-01-05 18:51:00,32.5,25.8,30.14,SW,217,0.0,7.0,76,0.00,,OVC110,0.02,VWS V14.00,2013-01-05 23:51:00,
2013-01-05 18:56:00,32.6,25.9,30.14,SSW,207,5.0,9.0,76,0.00,,OVC110,0.02,VWS V14.00,2013-01-05 23:56:00,
2013-01-05 19:01:00,32.8,26.1,30.14,SW,219,1.0,7.0,76,0.00,,OVC075,0.02,VWS V14.00,2013-01-06 00:01:00,
2013-01-05 19:06:00,33.0,26.3,30.13,SSW,197,3.0,13.0,76,0.00,,OVC075,0.02,VWS V14.00,2013-01-06 00:06:00,
2013-01-05 19:11:00,33.2,26.1,30.13,SSW,205,5.0,9.0,75,0.00,,OVC075,0.02,VWS V14.00,2013-01-06 00:11:00,
2013-01-05 19:16:00,33.4,26.3,30.13,SW,225,5.0,12.0,75,0.00,,OVC075,0.02,VWS V14.00,2013-01-06 00:16:00,
2013-01-05 19:21:00,33.5,26.8,30.13,SW,228,3.0,14.0,76,0.00,,OVC075,0.02,VWS V14.00,2013-01-06 00:21:00,
2013-01-05 19:26:00,33.5,26.8,30.13,SW,227,6.0,14.0,76,0.00,,OVC075,0.02,VWS V14.00,2013-01-06 00:26:00,
2013-01-05 19:31:00,33.5,27.1,30.13,SSW,212,0.0,14.0,77,0.00,,OVC075,0.02,VWS V14.00,2013-01-06 00:31:00,
2013-01-05 19:36:00,33.4,27.0,30.13,SW,218,6.0,14.0,77,0.00,,OVC075,0.02,VWS V14.00,2013-01-06 00:36:00,
2013-01-05 19:41:00,33.3,27.5,30.13,SW,226,7.0,11.0,79,0.00,,OVC075,0.02,VWS V14.00,2013-01-06 00:41:00,
2013-01-05 19:46:00,33.0,27.8,30.14,SW,232,10.0,13.0,81,0.00,,OVC075,0.02,VWS V14.00,2013-01-06 00:46:00,
2013-01-05 19:51:00,32.7,27.8,30.14,WSW,243,7.0,10.0,82,0.00,,OVC075,0.02,VWS V14.00,2013-01-06 00:51:00,
2013-01-05 19:56:00,32.4,27.8,30.14,SW,230,12.0,12.0,83,0.00,,OVC075,0.02,VWS V14.00,2013-01-06 00:56:00,
2013-01-05 20:01:00,32.3,28.0,30.13,SW,223,1.0,11.0,84,0.00,,,0.02,VWS V14.00,2013-01-06 01:01:00,
2013-01-05 20:06:00,32.2,28.2,30.13,WSW,247,2.0,11.0,85,0.00,,,0.02,VWS V14.00,2013-01-06 01:06:00,
2013-01-05 20:11:00,32.1,28.4,30.13,SW,221,3.0,11.0,86,0.00,,,0.02,VWS V14.00,2013-01-06 01:11:00,
2013-01-05 20:16:00,32.0,28.3,30.13,SW,232,7.0,11.0,86,0.00,,,0.02,VWS V14.00,2013-01-06 01:16:00,
2013-01-05 20:21:00,32.0,28.6,30.13,SW,236,0.0,7.0,87,0.00,,,0.02,VWS V14.00,2013-01-06 01:21:00,
2013-01-05 20:26:00,32.0,28.6,30.13,SW,230,2.0,7.0,87,0.00,,,0.02,VWS V14.00,2013-01-06 01:26:00,
2013-01-05 20:31:00,32.0,28.6,30.12,SW,230,3.0,7.0,87,0.00,,,0.02,VWS V14.00,2013-01-06 01:31:00,
2013-01-05 20:36:00,31.9,28.5,30.12,SW,232,5.0,10.0,87,0.00,,,0.02,VWS V14.00,2013-01-06 01:36:00,
2013-01-05 20:41:00,31.9,28.5,30.12,SW,234,0.0,10.0,87,0.00,,,0.02,VWS V14.00,2013-01-06 01:41:00,
2013-01-05 20:46:00,31.9,28.8,30.12,SW,236,2.0,11.0,88,0.00,,,0.02,VWS V14.00,2013-01-06 01:46:00,
2013-01-05 20:51:00,31.9,28.8,30.12,SW,227,4.0,6.0,88,0.00,,,0.02,VWS V14.00,2013-01-06 01:51:00,
2013-01-05 20:56:00,31.9,28.8,30.12,SSW,211,5.0,7.0,88,0.00,,,0.02,VWS V14.00,2013-01-06 01:56:00,
2013-01-05 21:01:00,31.9,28.8,30.12,SW,235,0.0,5.0,88,0.00,,,0.02,VWS V14.00,2013-01-06 02:01:00,
2013-01-05 21:06:00,31.9,28.8,30.11,SW,223,2.0,5.0,88,0.00,,,0.02,VWS V14.00,2013-01-06 02:06:00,
2013-01-05 21:11:00,31.9,29.0,30.11,SW,228,5.0,6.0,89,0.00,,,0.02,VWS V14.00,2013-01-06 02:11:00,
2013-01-05 21:16:00,31.9,29.0,30.11,WSW,249,0.0,7.0,89,0.00,,,0.02,VWS V14.00,2013-01-06 02:16:00,
2013-01-05 21:21:00,31.9,29.0,30.12,SW,228,1.0,6.0,89,0.00,,,0.02,VWS V14.00,2013-01-06 02:21:00,
2013-01-05 21:26:00,31.9,29.0,30.11,SSW,213,4.0,11.0,89,0.00,,,0.02,VWS V14.00,2013-01-06 02:26:00,
2013-01-05 21:31:00,31.9,29.0,30.11,SSW,209,3.0,9.0,89,0.00,,,0.02,VWS V14.00,2013-01-06 02:31:00,
2013-01-05 21:36:00,32.0,29.1,30.11,SW,236,3.0,10.0,89,0.00,,,0.02,VWS V14.00,2013-01-06 02:36:00,
2013-01-05 21:41:00,32.1,29.2,30.11,SW,234,0.0,7.0,89,0.00,,,0.02,VWS V14.00,2013-01-06 02:41:00,
2013-01-05 21:46:00,32.1,29.2,30.11,SW,222,4.0,10.0,89,0.00,,,0.02,VWS V14.00,2013-01-06 02:46:00,
2013-01-05 21:51:00,32.1,29.2,30.10,SW,220,3.0,5.0,89,0.00,,,0.02,VWS V14.00,2013-01-06 02:51:00,
2013-01-05 21:56:00,32.2,29.3,30.10,SW,217,0.0,6.0,89,0.00,,,0.02,VWS V14.00,2013-01-06 02:56:00,
2013-01-05 22:01:00,32.2,29.3,30.11,SSW,211,0.0,6.0,89,0.00,,,0.02,VWS V14.00,2013-01-06 03:01:00,
2013-01-05 22:06:00,32.3,29.4,30.10,SSW,213,5.0,8.0,89,0.00,,,0.02,VWS V14.00,2013-01-06 03:06:00,
2013-01-05 22:11:00,32.4,29.8,30.11,SW,223,0.0,4.0,90,0.00,,,0.02,VWS V14.00,2013-01-06 03:11:00,
2013-01-05 22:16:00,32.4,29.5,30.11,SW,214,0.0,13.0,89,0.00,,,0.02,VWS V14.00,2013-01-06 03:16:00,
2013-01-05 22:21:00,32.4,29.5,30.11,SW,234,4.0,10.0,89,0.00,,,0.02,VWS V14.00,2013-01-06 03:21:00,
2013-01-05 22:26:00,32.5,29.6,30.10,WSW,238,6.0,14.0,89,0.00,,,0.02,VWS V14.00,2013-01-06 03:26:00,
2013-01-05 22:30:00,32.5,29.6,30.10,SW,230,6.0,10.0,89,0.00,,,0.02,VWS V14.00,2013-01-06 03:30:00,
2013-01-05 22:35:00,32.5,29.6,30.10,SW,217,3.0,12.0,89,0.00,,,0.02,VWS V14.00,2013-01-06 03:35:00,
2013-01-05 22:40:00,32.5,29.6,30.09,SSW,209,3.0,10.0,89,0.00,,,0.02,VWS V14.00,2013-01-06 03:40:00,
2013-01-05 22:45:00,32.5,29.6,30.09,SW,217,7.0,12.0,89,0.00,,,0.02,VWS V14.00,2013-01-06 03:45:00,
2013-01-05 22:50:00,32.5,29.6,30.09,SW,223,3.0,5.0,89,0.00,,,0.02,VWS V14.00,2013-01-06 03:50:00,
2013-01-05 22:55:00,32.5,29.6,30.09,SSW,200,4.0,5.0,89,0.00,,,0.02,VWS V14.00,2013-01-06 03:55:00,
2013-01-05 23:00:00,32.5,29.6,30.09,SW,215,1.0,4.0,89,0.00,,,0.02,VWS V14.00,2013-01-06 04:00:00,
2013-01-05 23:05:00,32.4,29.2,30.09,SW,227,5.0,10.0,88,0.00,,,0.02,VWS V14.00,2013-01-06 04:05:00,
2013-01-05 23:10:00,32.5,29.4,30.09,SSW,193,4.0,7.0,88,0.00,,,0.02,VWS V14.00,2013-01-06 04:10:00,
2013-01-05 23:15:00,32.5,29.4,30.09,SSW,207,6.0,9.0,88,0.00,,,0.02,VWS V14.00,2013-01-06 04:15:00,
2013-01-05 23:20:00,32.5,29.4,30.09,WSW,244,4.0,10.0,88,0.00,,,0.02,VWS V14.00,2013-01-06 04:20:00,
2013-01-05 23:25:00,32.5,29.4,30.09,South,179,2.0,11.0,88,0.00,,,0.02,VWS V14.00,2013-01-06 04:25:00,
2013-01-05 23:30:00,32.5,29.4,30.09,SSW,200,3.0,8.0,88,0.00,,,0.02,VWS V14.00,2013-01-06 04:30:00,
2013-01-05 23:35:00,32.5,29.4,30.08,WSW,242,5.0,9.0,88,0.00,,,0.02,VWS V14.00,2013-01-06 04:35:00,
2013-01-05 23:40:00,32.5,29.4,30.08,SW,227,8.0,9.0,88,0.00,,,0.02,VWS V14.00,2013-01-06 04:40:00,
2013-01-05 23:45:00,32.5,29.4,30.08,SSW,205,2.0,10.0,88,0.00,,,0.02,VWS V14.00,2013-01-06 04:45:00,
2013-01-05 23:50:00,32.4,29.2,30.07,SW,218,3.0,8.0,88,0.00,,,0.02,VWS V14.00,2013-01-06 04:50:00,
2013-01-05 23:55:00,32.4,29.0,30.07,SW,230,2.0,9.0,87,0.00,,,0.02,VWS V14.00,2013-01-06 04:55:00,